Time;durP1;ratioP1;P1;durP2;ratioP2;P2;SDS_P1;SDS_P2;PMS_P1;PMS_P2;Temp;Humidity;BMP_temperature;BMP_pressure;BME280_temperature;BME280_humidity;BME280_pressure;Samples;Min_cycle;Max_cycle;Signal;HPM_P1;HPM_P2
2023/06/16 00:02:12;;;;;;;14.57;7.00;;;15.20;99.90;;;;;;4957037;28;20046;-89
2023/06/16 00:04:39;;;;;;;10.48;7.10;;;15.20;99.90;;;;;;4952322;28;20340;-89
2023/06/16 00:07:06;;;;;;;11.35;6.32;;;15.20;99.90;;;;;;4957356;28;20137;-89
2023/06/16 00:09:32;;;;;;;11.07;6.85;;;15.20;99.90;;;;;;4945697;28;20482;-89
2023/06/16 00:11:57;;;;;;;8.73;6.15;;;15.20;99.90;;;;;;4943273;28;20050;-89
2023/06/16 00:14:23;;;;;;;8.35;6.75;;;15.20;99.90;;;;;;4946477;28;20430;-90
2023/06/16 00:16:49;;;;;;;10.13;6.38;;;15.30;99.90;;;;;;4955571;28;20104;-89
2023/06/16 00:19:15;;;;;;;11.35;6.18;;;15.30;99.90;;;;;;4957270;28;20042;-89
2023/06/16 00:21:44;;;;;;;16.92;6.13;;;15.30;99.90;;;;;;4958178;28;20045;-90
2023/06/16 00:24:16;;;;;;;13.57;6.55;;;15.30;99.90;;;;;;4944533;28;20402;-90
2023/06/16 00:26:42;;;;;;;7.70;5.95;;;15.40;99.90;;;;;;4957290;28;20101;-91
2023/06/16 00:29:08;;;;;;;10.70;6.63;;;15.40;99.90;;;;;;4944463;28;20043;-90
2023/06/16 00:31:33;;;;;;;8.27;6.20;;;15.40;99.90;;;;;;4950393;28;20379;-91
2023/06/16 00:33:59;;;;;;;11.45;6.45;;;15.40;99.90;;;;;;4949652;28;20042;-89
2023/06/16 00:36:26;;;;;;;8.98;6.03;;;15.40;99.90;;;;;;4955918;28;20049;-89
2023/06/16 00:38:52;;;;;;;18.05;7.53;;;15.50;99.90;;;;;;4957316;28;20057;-90
2023/06/16 00:41:18;;;;;;;10.43;6.85;;;15.50;99.90;;;;;;4968211;28;20047;-90
2023/06/16 00:43:52;;;;;;;8.52;6.68;;;15.50;99.90;;;;;;4955986;28;20188;-90
2023/06/16 00:46:26;;;;;;;10.70;5.97;;;15.50;99.90;;;;;;4957211;28;20038;-90
2023/06/16 00:48:52;;;;;;;10.35;6.28;;;15.50;99.90;;;;;;4955069;28;20088;-89
2023/06/16 00:51:18;;;;;;;10.07;7.28;;;15.40;99.90;;;;;;4937139;28;20046;-89
2023/06/16 00:53:44;;;;;;;7.95;5.93;;;15.40;99.90;;;;;;4938582;28;20586;-88
2023/06/16 00:56:11;;;;;;;9.55;6.78;;;15.40;99.90;;;;;;4956313;28;20121;-89
2023/06/16 00:58:38;;;;;;;10.27;6.10;;;15.50;99.90;;;;;;4954503;28;20062;-89
2023/06/16 01:01:04;;;;;;;7.93;6.50;;;15.40;99.90;;;;;;4937310;28;20055;-88
2023/06/16 01:03:32;;;;;;;8.13;7.10;;;15.40;99.90;;;;;;4937965;28;20082;-88
2023/06/16 01:06:04;;;;;;;9.75;7.03;;;15.40;99.90;;;;;;4944258;28;20644;-88
2023/06/16 01:08:40;;;;;;;10.33;7.20;;;15.50;99.90;;;;;;4942275;28;20051;-89
2023/06/16 01:11:29;;;;;;;13.32;7.90;;;15.50;99.90;;;;;;4946771;28;20096;-89
2023/06/16 01:14:03;;;;;;;10.32;7.68;;;15.50;99.90;;;;;;4937300;28;20133;-89
2023/06/16 01:16:31;;;;;;;10.57;7.97;;;15.60;99.90;;;;;;4937220;28;20129;-89
2023/06/16 01:19:02;;;;;;;8.52;7.32;;;15.50;99.90;;;;;;4944965;28;20129;-89
2023/06/16 01:21:52;;;;;;;10.52;6.80;;;15.50;99.90;;;;;;4953555;28;20498;-89
2023/06/16 01:24:23;;;;;;;13.82;7.53;;;15.50;99.90;;;;;;4949573;28;20052;-90
2023/06/16 01:26:55;;;;;;;7.95;6.95;;;15.40;99.90;;;;;;4943116;28;20482;-90
2023/06/16 01:29:22;;;;;;;8.70;7.20;;;15.30;99.90;;;;;;4942876;28;20043;-89
2023/06/16 01:31:51;;;;;;;11.90;6.82;;;15.20;99.90;;;;;;4949657;28;20070;-89
2023/06/16 01:34:18;;;;;;;10.23;7.50;;;15.20;99.90;;;;;;4949164;28;20046;-89
2023/06/16 01:36:46;;;;;;;12.70;7.53;;;15.10;99.90;;;;;;4937251;28;20042;-89
2023/06/16 01:39:15;;;;;;;12.77;8.15;;;15.10;99.90;;;;;;4950531;28;20089;-89
2023/06/16 01:41:41;;;;;;;9.00;7.47;;;15.00;99.90;;;;;;4956329;28;20054;-90
2023/06/16 01:44:08;;;;;;;12.55;8.15;;;15.00;99.90;;;;;;4954198;28;20046;-89
2023/06/16 01:46:36;;;;;;;13.65;7.97;;;15.00;99.90;;;;;;4936813;28;20042;-89
2023/06/16 01:49:03;;;;;;;9.25;7.28;;;15.00;99.90;;;;;;4955885;28;20046;-89
2023/06/16 01:51:29;;;;;;;11.15;8.00;;;14.90;99.90;;;;;;4946964;28;20130;-89
2023/06/16 01:53:56;;;;;;;9.23;7.18;;;14.90;99.90;;;;;;4938300;28;20491;-89
2023/06/16 01:56:23;;;;;;;9.52;7.82;;;14.80;99.90;;;;;;4956005;28;20042;-90
2023/06/16 01:58:49;;;;;;;9.98;7.53;;;14.80;99.90;;;;;;4956048;28;20584;-90
2023/06/16 02:01:19;;;;;;;13.18;8.25;;;14.70;99.90;;;;;;4961237;28;20148;-90
2023/06/16 02:03:50;;;;;;;9.43;8.35;;;14.60;99.90;;;;;;4952544;28;20089;-90
2023/06/16 02:06:26;;;;;;;11.43;7.80;;;14.60;99.90;;;;;;4944542;28;20058;-91
2023/06/16 02:08:56;;;;;;;9.75;7.50;;;14.50;99.90;;;;;;4954995;28;20176;-90
2023/06/16 02:11:23;;;;;;;8.98;7.32;;;14.40;99.90;;;;;;4955671;28;20116;-91
2023/06/16 02:13:49;;;;;;;8.50;7.60;;;14.30;99.90;;;;;;4953516;28;20049;-90
2023/06/16 02:16:15;;;;;;;11.43;8.88;;;14.20;99.90;;;;;;4952799;28;20049;-91
2023/06/16 02:18:40;;;;;;;10.55;8.30;;;14.10;99.90;;;;;;4950351;28;20094;-91
2023/06/16 02:21:06;;;;;;;10.43;8.82;;;14.00;99.90;;;;;;4939385;28;20038;-91
2023/06/16 02:23:32;;;;;;;10.65;8.20;;;14.00;99.90;;;;;;4953375;28;20402;-91
2023/06/16 02:25:57;;;;;;;12.05;8.30;;;13.90;99.90;;;;;;4937972;28;20105;-91
2023/06/16 02:28:23;;;;;;;10.02;8.30;;;13.80;99.90;;;;;;4954654;28;20096;-92
2023/06/16 02:30:55;;;;;;;12.48;9.55;;;13.80;99.90;;;;;;4943852;28;20038;-91
2023/06/16 02:33:20;;;;;;;10.50;9.25;;;13.70;99.90;;;;;;4954084;28;20541;-92
2023/06/16 02:35:46;;;;;;;14.35;9.95;;;13.70;99.90;;;;;;4943115;28;20047;-92
2023/06/16 02:38:12;;;;;;;17.20;10.75;;;13.70;99.90;;;;;;4937515;28;20047;-92
2023/06/16 02:40:37;;;;;;;12.27;10.23;;;13.80;99.90;;;;;;4950443;28;20509;-92
2023/06/16 02:43:03;;;;;;;17.05;11.30;;;13.80;99.90;;;;;;4937999;28;20131;-92
2023/06/16 02:45:29;;;;;;;11.55;10.35;;;13.80;99.90;;;;;;4948953;28;20038;-92
2023/06/16 02:47:55;;;;;;;12.65;9.93;;;13.80;99.90;;;;;;4956142;28;20066;-92
2023/06/16 02:50:21;;;;;;;11.85;9.45;;;13.90;99.90;;;;;;4955277;28;20442;-92
2023/06/16 02:52:54;;;;;;;11.77;10.07;;;13.80;99.90;;;;;;4943631;28;20169;-92
2023/06/16 02:55:19;;;;;;;;;;;13.80;99.90;;;;;;4941199;28;20039;-92
2023/06/16 02:57:45;;;;;;;13.05;10.70;;;13.80;99.90;;;;;;4956491;28;19922;-92
2023/06/16 03:00:12;;;;;;;12.23;8.45;;;13.70;99.90;;;;;;4950803;28;20051;-92
2023/06/16 03:02:47;;;;;;;11.60;10.40;;;13.70;99.90;;;;;;4956035;28;20065;-93
2023/06/16 03:05:12;;;;;;;12.98;10.23;;;13.60;99.90;;;;;;4941768;28;20495;-92
2023/06/16 03:07:38;;;;;;;12.18;9.70;;;13.50;99.90;;;;;;4949195;28;20447;-91
2023/06/16 03:10:10;;;;;;;11.85;10.55;;;13.50;99.90;;;;;;4943021;28;20046;-91
2023/06/16 03:12:36;;;;;;;15.55;10.20;;;13.50;99.90;;;;;;4939809;28;20055;-91
2023/06/16 03:15:02;;;;;;;13.35;9.93;;;13.40;99.90;;;;;;4955499;28;20034;-91
2023/06/16 03:17:27;;;;;;;13.65;12.27;;;13.40;99.90;;;;;;4948766;28;20050;-90
2023/06/16 03:19:56;;;;;;;14.40;11.23;;;13.30;99.90;;;;;;4951574;28;20093;-91
2023/06/16 03:22:22;;;;;;;14.32;10.98;;;13.30;99.90;;;;;;4949700;28;20046;-91
2023/06/16 03:24:48;;;;;;;13.02;11.73;;;13.30;99.90;;;;;;4941546;28;20382;-91
2023/06/16 03:27:17;;;;;;;15.38;12.98;;;13.40;99.90;;;;;;4947346;28;20475;-90
2023/06/16 03:29:43;;;;;;;14.25;12.75;;;13.40;99.90;;;;;;4941935;28;20039;-91
2023/06/16 03:32:09;;;;;;;14.90;13.15;;;13.40;99.90;;;;;;4951474;28;20042;-90
2023/06/16 03:34:35;;;;;;;15.38;13.45;;;13.40;99.90;;;;;;4940563;28;20455;-90
2023/06/16 03:37:01;;;;;;;17.05;13.52;;;13.50;99.90;;;;;;4939724;28;20099;-89
2023/06/16 03:39:27;;;;;;;15.60;13.98;;;13.50;99.90;;;;;;4951133;28;20046;-89
2023/06/16 03:41:53;;;;;;;14.93;13.43;;;13.60;99.90;;;;;;4958823;28;20362;-90
2023/06/16 03:44:18;;;;;;;16.95;15.23;;;13.60;99.90;;;;;;4955997;28;20046;-90
2023/06/16 03:46:44;;;;;;;14.93;13.30;;;13.60;99.90;;;;;;4947834;28;20050;-90
2023/06/16 03:49:10;;;;;;;14.27;12.77;;;13.60;99.90;;;;;;4952024;28;20131;-90
2023/06/16 03:51:37;;;;;;;17.85;15.95;;;13.70;99.90;;;;;;4948827;28;20663;-90
2023/06/16 03:54:03;;;;;;;16.60;14.98;;;13.70;99.90;;;;;;4943920;28;20053;-89
2023/06/16 03:56:32;;;;;;;18.60;15.88;;;13.80;99.90;;;;;;4947816;28;20129;-90
2023/06/16 03:58:58;;;;;;;18.33;16.30;;;13.80;99.90;;;;;;4953931;28;20059;-90
2023/06/16 04:01:24;;;;;;;19.92;16.55;;;13.80;99.90;;;;;;4949049;28;20522;-90
2023/06/16 04:03:50;;;;;;;21.70;19.40;;;13.90;99.90;;;;;;4957554;28;20129;-91
2023/06/16 04:06:16;;;;;;;23.70;19.33;;;14.00;99.90;;;;;;4958825;28;20188;-90
2023/06/16 04:08:44;;;;;;;19.08;17.08;;;14.00;99.90;;;;;;4956633;28;20534;-91
2023/06/16 04:11:10;;;;;;;19.50;17.38;;;14.10;99.90;;;;;;4958211;28;20565;-91
2023/06/16 04:13:36;;;;;;;20.95;18.83;;;14.20;99.90;;;;;;4957990;28;20046;-93
2023/06/16 04:16:02;;;;;;;20.42;18.23;;;14.20;99.90;;;;;;4956201;28;20129;-92
2023/06/16 04:18:27;;;;;;;18.48;16.58;;;14.30;99.90;;;;;;4946323;28;20050;-92
2023/06/16 04:20:53;;;;;;;20.88;18.67;;;14.40;99.90;;;;;;4957726;28;20034;-93
2023/06/16 04:23:19;;;;;;;20.90;18.58;;;14.50;99.90;;;;;;4957383;28;20046;-93
2023/06/16 04:25:45;;;;;;;20.40;18.30;;;14.50;99.90;;;;;;4945731;28;20048;-93
2023/06/16 04:28:13;;;;;;;20.73;18.27;;;14.60;99.90;;;;;;4947355;28;20054;-92
2023/06/16 04:30:41;;;;;;;20.88;18.77;;;14.60;99.90;;;;;;4970216;28;20518;-91
2023/06/16 04:33:07;;;;;;;25.50;19.58;;;14.70;99.90;;;;;;4954220;28;20050;-92
2023/06/16 04:35:34;;;;;;;20.95;18.75;;;14.80;99.90;;;;;;4945179;28;20050;-92
2023/06/16 04:38:00;;;;;;;21.65;19.35;;;14.90;99.90;;;;;;4941554;28;20137;-92
2023/06/16 04:40:27;;;;;;;22.30;19.30;;;15.00;99.90;;;;;;4950612;28;20050;-92
2023/06/16 04:42:53;;;;;;;22.67;19.70;;;15.10;99.90;;;;;;4946908;28;20049;-92
2023/06/16 04:45:20;;;;;;;22.23;19.48;;;15.20;99.90;;;;;;4945939;28;20053;-92
2023/06/16 04:47:46;;;;;;;26.85;19.77;;;15.30;99.90;;;;;;4951689;28;20046;-92
2023/06/16 04:50:15;;;;;;;30.13;21.75;;;15.40;99.90;;;;;;4949111;28;20501;-92
2023/06/16 04:52:41;;;;;;;23.35;19.75;;;15.50;99.90;;;;;;4956772;28;20054;-94
2023/06/16 04:55:07;;;;;;;24.75;19.92;;;15.60;99.90;;;;;;4954425;28;20147;-92
2023/06/16 04:57:34;;;;;;;23.80;19.92;;;15.70;99.90;;;;;;4943766;28;20069;-94
2023/06/16 05:00:03;;;;;;;27.55;20.52;;;15.80;99.90;;;;;;4945204;28;20046;-92
2023/06/16 05:02:29;;;;;;;24.52;19.40;;;15.90;99.90;;;;;;4954285;28;20058;-93
2023/06/16 05:04:57;;;;;;;23.13;18.38;;;16.00;99.90;;;;;;4955534;28;20129;-92
2023/06/16 05:07:23;;;;;;;24.00;18.33;;;16.10;99.90;;;;;;4938068;28;20546;-92
2023/06/16 05:09:48;;;;;;;26.27;18.92;;;16.20;99.90;;;;;;4938175;28;20046;-92
2023/06/16 05:12:14;;;;;;;19.98;17.00;;;16.40;99.90;;;;;;4937386;28;20426;-92
2023/06/16 05:14:40;;;;;;;22.80;17.40;;;16.50;99.90;;;;;;4953150;28;20057;-91
2023/06/16 05:17:06;;;;;;;19.25;17.17;;;16.60;99.90;;;;;;4956653;28;20053;-92
2023/06/16 05:19:32;;;;;;;19.77;16.52;;;16.70;99.90;;;;;;4943471;28;20125;-92
2023/06/16 05:21:58;;;;;;;19.17;15.07;;;16.80;99.90;;;;;;4957207;28;20098;-92
2023/06/16 05:24:24;;;;;;;19.42;15.45;;;16.90;99.90;;;;;;4956156;28;20058;-93
2023/06/16 05:26:50;;;;;;;17.63;14.52;;;17.00;99.90;;;;;;4957370;28;20486;-93
2023/06/16 05:29:16;;;;;;;17.63;13.45;;;17.10;99.90;;;;;;4956052;28;20060;-94
2023/06/16 05:31:42;;;;;;;17.92;13.15;;;17.20;99.90;;;;;;4955741;28;20903;-92
2023/06/16 05:34:07;;;;;;;16.92;12.35;;;17.30;99.90;;;;;;4955404;28;20058;-92
2023/06/16 05:36:35;;;;;;;20.02;12.48;;;17.40;99.90;;;;;;4956347;28;20049;-94
2023/06/16 05:39:03;;;;;;;16.67;11.15;;;17.40;99.90;;;;;;4953655;28;20050;-93
2023/06/16 05:41:29;;;;;;;17.55;11.18;;;17.50;99.90;;;;;;4940027;28;20046;-93
2023/06/16 05:43:55;;;;;;;15.95;11.75;;;17.60;99.90;;;;;;4940343;28;20074;-93
2023/06/16 05:46:22;;;;;;;18.42;10.52;;;17.70;99.90;;;;;;4956275;28;20082;-92
2023/06/16 05:48:48;;;;;;;14.82;10.05;;;17.80;99.90;;;;;;4955541;28;20450;-93
2023/06/16 05:51:14;;;;;;;15.07;10.60;;;17.90;99.90;;;;;;4960249;28;20030;-94
2023/06/16 05:53:40;;;;;;;17.10;9.48;;;18.00;99.90;;;;;;4952771;28;20147;-94
2023/06/16 05:56:06;;;;;;;17.50;9.85;;;18.10;99.90;;;;;;4938669;28;20074;-94
2023/06/16 05:58:35;;;;;;;17.02;9.57;;;18.10;99.90;;;;;;4945773;28;20051;-93
2023/06/16 06:01:03;;;;;;;16.20;10.05;;;18.20;99.90;;;;;;4926446;28;20482;-94
2023/06/16 06:03:29;;;;;;;13.50;10.18;;;18.20;99.90;;;;;;4933419;28;20082;-95
2023/06/16 06:05:56;;;;;;;16.65;11.02;;;18.40;99.90;;;;;;4946965;28;20039;-93
2023/06/16 06:08:26;;;;;;;18.45;12.10;;;18.40;99.90;;;;;;4947487;28;20043;-94
2023/06/16 06:10:52;;;;;;;16.23;11.95;;;18.50;99.90;;;;;;4952673;28;20487;-94
2023/06/16 06:13:18;;;;;;;18.92;13.25;;;18.60;99.90;;;;;;4932187;28;20530;-96
2023/06/16 06:15:44;;;;;;;24.25;14.98;;;18.60;99.90;;;;;;4944966;28;20049;-94
2023/06/16 06:18:10;;;;;;;24.30;15.93;;;18.80;99.90;;;;;;4929101;28;20051;-95
2023/06/16 06:20:38;;;;;;;26.15;16.83;;;18.80;99.90;;;;;;4945605;28;20078;-94
2023/06/16 06:23:04;;;;;;;25.98;17.13;;;18.80;99.90;;;;;;4928172;28;20110;-95
2023/06/16 06:25:30;;;;;;;25.88;17.35;;;18.90;99.90;;;;;;4935994;28;20439;-94
2023/06/16 06:27:56;;;;;;;26.30;16.90;;;19.00;99.90;;;;;;4933706;28;20058;-95
2023/06/16 06:30:25;;;;;;;26.83;17.15;;;19.10;99.90;;;;;;4952924;28;20121;-95
2023/06/16 06:32:51;;;;;;;28.92;18.17;;;19.20;99.90;;;;;;4936498;28;20054;-93
2023/06/16 06:35:19;;;;;;;26.35;16.35;;;19.20;99.90;;;;;;4936424;28;20047;-94
2023/06/16 06:37:45;;;;;;;26.27;16.10;;;19.30;99.90;;;;;;4936904;28;20115;-93
2023/06/16 06:40:10;;;;;;;27.63;16.45;;;19.30;99.90;;;;;;4936754;28;20587;-95
2023/06/16 06:42:36;;;;;;;21.60;14.07;;;19.40;99.90;;;;;;4939348;28;20046;-93
2023/06/16 06:45:02;;;;;;;20.25;12.27;;;19.40;99.90;;;;;;4941594;28;20055;-93
2023/06/16 06:47:28;;;;;;;16.55;11.05;;;19.50;99.90;;;;;;4941565;28;20563;-92
2023/06/16 06:49:57;;;;;;;15.35;10.25;;;19.60;99.90;;;;;;4931304;29;20073;-96
2023/06/16 06:52:34;;;;;;;13.20;9.65;;;19.60;99.90;;;;;;4948976;28;20184;-96
2023/06/16 07:03:16;;;;;;;12.98;7.85;;;20.00;99.90;;;;;;4955802;29;20047;-96
2023/06/16 07:05:42;;;;;;;11.35;8.02;;;20.10;99.90;;;;;;4921630;29;20372;-96
2023/06/16 07:09:01;;;;;;;;;;;;;;;;;;;;;
2023/06/16 07:14:01;;;;;;;11.40;6.70;;;20.40;99.90;;;;;;4955086;28;20608;-95
2023/06/16 07:16:28;;;;;;;9.43;6.20;;;20.50;99.90;;;;;;4919937;29;20129;-92
2023/06/16 07:18:53;;;;;;;8.68;6.22;;;20.60;99.90;;;;;;4938000;29;20047;-89
2023/06/16 07:21:19;;;;;;;7.18;5.43;;;20.60;99.90;;;;;;4913948;29;20031;-95
2023/06/16 07:23:45;;;;;;;11.70;5.53;;;20.60;99.90;;;;;;4910335;28;20586;-91
2023/06/16 07:26:23;;;;;;;10.07;5.60;;;20.60;99.90;;;;;;4919411;29;20530;-94
2023/06/16 07:29:01;;;;;;;7.35;4.85;;;20.70;99.90;;;;;;4920911;29;20083;-95
2023/06/16 07:31:27;;;;;;;6.70;4.72;;;20.80;99.90;;;;;;4920698;29;20054;-94
2023/06/16 07:33:53;;;;;;;7.07;4.35;;;20.80;99.90;;;;;;4916088;29;20051;-93
2023/06/16 07:36:19;;;;;;;10.60;5.20;;;20.90;99.90;;;;;;4918215;29;20376;-94
2023/06/16 07:38:45;;;;;;;11.90;4.78;;;21.10;99.90;;;;;;4920314;29;20047;-94
2023/06/16 07:41:10;;;;;;;8.13;4.57;;;21.00;99.90;;;;;;4920799;29;20129;-94
2023/06/16 07:43:47;;;;;;;8.43;4.30;;;21.10;99.90;;;;;;4909424;29;20482;-93
2023/06/16 07:46:12;;;;;;;8.15;4.45;;;21.10;99.90;;;;;;4919378;29;20455;-93
2023/06/16 07:48:38;;;;;;;7.40;4.43;;;21.20;99.90;;;;;;4920695;29;20050;-92
2023/06/16 07:51:04;;;;;;;7.40;4.30;;;21.20;99.90;;;;;;4919966;29;20051;-93
2023/06/16 07:53:31;;;;;;;8.30;4.47;;;21.20;99.90;;;;;;4919873;29;20130;-94
2023/06/16 07:55:57;;;;;;;6.90;4.20;;;21.30;99.90;;;;;;4920082;29;20131;-92
2023/06/16 07:58:23;;;;;;;7.15;4.18;;;21.30;99.90;;;;;;4920348;29;20257;-93
2023/06/16 08:00:51;;;;;;;8.23;3.88;;;21.40;99.90;;;;;;4920486;29;20039;-93
2023/06/16 08:03:18;;;;;;;6.70;3.78;;;21.50;99.90;;;;;;4920247;29;20053;-93
2023/06/16 08:05:44;;;;;;;6.45;3.30;;;21.40;99.90;;;;;;4920437;29;20059;-93
2023/06/16 08:08:10;;;;;;;6.78;3.20;;;21.40;99.90;;;;;;4919348;29;20077;-92
2023/06/16 08:10:35;;;;;;;7.72;2.83;;;21.50;99.90;;;;;;4924392;29;20070;-92
2023/06/16 08:13:02;;;;;;;5.65;2.45;;;21.60;99.90;;;;;;4920179;29;20177;-93
2023/06/16 08:15:28;;;;;;;5.95;2.42;;;21.60;99.90;;;;;;4919902;29;20047;-93
2023/06/16 08:18:12;;;;;;;11.55;2.63;;;21.60;99.90;;;;;;4920390;29;20522;-93
2023/06/16 08:20:37;;;;;;;4.45;2.42;;;21.70;99.90;;;;;;4919226;29;20424;-91
2023/06/16 08:23:03;;;;;;;4.97;2.30;;;21.80;99.90;;;;;;4920150;29;20070;-92
2023/06/16 08:25:29;;;;;;;6.32;2.20;;;21.90;99.90;;;;;;4919357;29;20049;-92
2023/06/16 08:27:55;;;;;;;6.47;2.00;;;21.90;99.90;;;;;;4919542;29;20053;-93
2023/06/16 08:30:20;;;;;;;4.03;2.20;;;22.00;99.90;;;;;;4919690;29;20047;-94
2023/06/16 08:32:46;;;;;;;9.32;2.45;;;22.00;98.20;;;;;;4919812;29;20102;-93
2023/06/16 08:35:13;;;;;;;5.88;2.00;;;22.00;97.70;;;;;;4919465;29;20068;-93
2023/06/16 08:37:39;;;;;;;3.13;1.75;;;22.10;96.90;;;;;;4919512;29;20047;-92
2023/06/16 08:40:08;;;;;;;5.20;1.88;;;22.20;96.50;;;;;;4919659;29;20079;-92
2023/06/16 08:42:37;;;;;;;8.98;1.88;;;22.30;95.70;;;;;;4918490;29;20058;-91
2023/06/16 08:45:05;;;;;;;5.00;1.60;;;22.40;95.30;;;;;;4919627;29;20047;-93
2023/06/16 08:47:31;;;;;;;4.30;1.70;;;22.50;94.60;;;;;;4919587;29;20604;-91
2023/06/16 08:50:00;;;;;;;3.53;1.60;;;22.50;93.70;;;;;;4919123;29;20081;-91
2023/06/16 08:52:29;;;;;;;2.80;1.50;;;22.60;92.90;;;;;;4918892;29;20043;-91
2023/06/16 08:55:01;;;;;;;3.72;1.50;;;22.60;92.40;;;;;;4918820;29;20050;-93
2023/06/16 08:57:30;;;;;;;7.05;2.10;;;22.60;91.60;;;;;;4919344;29;20055;-94
2023/06/16 08:59:57;;;;;;;4.00;1.70;;;22.60;91.10;;;;;;4919797;29;20039;-91
2023/06/16 09:02:25;;;;;;;6.65;1.88;;;22.60;91.30;;;;;;4917921;29;20047;-93
2023/06/16 09:04:53;;;;;;;6.15;1.85;;;22.60;92.20;;;;;;4919103;29;20047;-94
2023/06/16 09:07:27;;;;;;;5.35;1.50;;;22.70;92.70;;;;;;4918848;29;20054;-92
2023/06/16 09:09:53;;;;;;;5.35;1.48;;;22.70;92.60;;;;;;4916908;29;20050;-92
2023/06/16 09:12:19;;;;;;;6.05;1.63;;;22.70;92.00;;;;;;4917460;29;20121;-91
2023/06/16 09:14:49;;;;;;;6.88;1.67;;;22.70;91.60;;;;;;4915409;29;20059;-90
2023/06/16 09:17:18;;;;;;;4.60;1.67;;;22.70;91.80;;;;;;4918216;29;20043;-89
2023/06/16 09:19:47;;;;;;;4.78;1.75;;;22.80;91.90;;;;;;4914767;29;20107;-88
2023/06/16 09:22:18;;;;;;;9.23;1.92;;;22.80;91.40;;;;;;4918598;29;20058;-89
2023/06/16 09:24:51;;;;;;;5.10;1.75;;;22.80;91.60;;;;;;4917230;29;20047;-92
2023/06/16 09:27:18;;;;;;;4.00;1.42;;;22.70;91.50;;;;;;4919297;29;20066;-91
2023/06/16 09:29:50;;;;;;;4.82;1.50;;;22.80;92.00;;;;;;4919130;29;20130;-89
2023/06/16 09:32:16;;;;;;;4.28;1.60;;;22.90;92.10;;;;;;4918123;29;20479;-89
2023/06/16 09:34:43;;;;;;;4.72;1.42;;;23.00;91.80;;;;;;4917956;29;20087;-89
2023/06/16 09:37:10;;;;;;;3.75;1.88;;;23.00;91.80;;;;;;4918584;29;20146;-88
2023/06/16 09:39:36;;;;;;;4.32;1.50;;;23.00;91.80;;;;;;4917225;29;20046;-89
2023/06/16 09:42:02;;;;;;;4.82;1.98;;;23.10;92.10;;;;;;4919213;29;20098;-90
2023/06/16 09:44:30;;;;;;;5.45;1.77;;;23.20;92.50;;;;;;4918369;29;20035;-89
2023/06/16 09:47:00;;;;;;;6.85;1.70;;;23.20;92.50;;;;;;4918253;29;20175;-90
2023/06/16 09:49:29;;;;;;;5.97;1.60;;;23.20;91.60;;;;;;4918357;29;20403;-90
2023/06/16 09:51:58;;;;;;;6.40;1.70;;;23.20;91.20;;;;;;4918873;29;20123;-90
2023/06/16 09:54:26;;;;;;;4.47;1.45;;;23.20;91.30;;;;;;4921536;29;20484;-91
2023/06/16 09:56:55;;;;;;;7.43;1.90;;;23.30;91.60;;;;;;4918999;29;20075;-91
2023/06/16 09:59:23;;;;;;;8.63;1.65;;;23.30;91.30;;;;;;4918415;29;20058;-90
2023/06/16 10:01:51;;;;;;;10.40;1.60;;;23.20;90.80;;;;;;4919151;29;20534;-90
2023/06/16 10:04:18;;;;;;;9.50;1.58;;;23.20;90.50;;;;;;4918711;28;20049;-90
2023/06/16 10:07:02;;;;;;;5.55;1.80;;;23.20;90.20;;;;;;4917741;29;20043;-91
2023/06/16 10:09:42;;;;;;;5.43;1.88;;;23.30;90.10;;;;;;4917986;29;20070;-90
2023/06/16 10:12:12;;;;;;;5.30;2.00;;;23.40;90.60;;;;;;4917495;29;20047;-88
2023/06/16 10:14:41;;;;;;;7.88;1.83;;;23.40;90.20;;;;;;4919124;29;20051;-91
2023/06/16 10:17:10;;;;;;;5.00;1.58;;;23.50;89.30;;;;;;4925332;28;20050;-90
2023/06/16 10:19:40;;;;;;;3.97;1.80;;;23.60;89.30;;;;;;4924672;29;20051;-90
2023/06/16 10:22:07;;;;;;;7.15;1.80;;;23.70;88.40;;;;;;4916600;29;20094;-90
2023/06/16 10:24:36;;;;;;;4.10;1.20;;;23.70;87.60;;;;;;4921371;29;20126;-91
2023/06/16 10:27:02;;;;;;;6.03;1.83;;;23.80;86.80;;;;;;4921117;29;20048;-89
2023/06/16 10:29:29;;;;;;;4.50;1.98;;;23.90;86.90;;;;;;4915616;29;20130;-89
2023/06/16 10:32:06;;;;;;;9.25;1.80;;;24.00;86.40;;;;;;4920786;29;20047;-90
2023/06/16 10:34:34;;;;;;;11.10;2.45;;;24.00;86.20;;;;;;4919171;29;20118;-91
2023/06/16 10:37:01;;;;;;;3.97;1.73;;;23.90;85.10;;;;;;4918813;29;20035;-92
2023/06/16 10:39:27;;;;;;;5.57;1.83;;;23.90;84.80;;;;;;4914946;29;20050;-92
2023/06/16 10:41:55;;;;;;;3.67;1.60;;;23.90;86.30;;;;;;4922089;29;20115;-92
2023/06/16 10:44:30;;;;;;;7.45;1.90;;;24.00;86.00;;;;;;4921134;29;20098;-92
2023/06/16 10:47:05;;;;;;;6.00;1.80;;;24.00;85.90;;;;;;4921458;29;20468;-91
2023/06/16 10:49:31;;;;;;;10.35;1.85;;;24.20;85.90;;;;;;4914834;29;20131;-92
2023/06/16 10:51:59;;;;;;;3.05;1.30;;;24.20;85.00;;;;;;4916041;29;20043;-90
2023/06/16 10:54:43;;;;;;;4.53;1.83;;;24.30;86.20;;;;;;4915460;29;20543;-93
2023/06/16 10:57:10;;;;;;;8.07;1.80;;;24.30;84.60;;;;;;4921185;29;20051;-94
2023/06/16 11:00:18;;;;;;;5.15;1.40;;;24.40;84.90;;;;;;4922344;29;20055;-93
2023/06/16 11:02:51;;;;;;;6.20;2.00;;;24.40;86.00;;;;;;4921370;29;20130;-93
2023/06/16 11:05:22;;;;;;;3.90;1.40;;;24.40;85.90;;;;;;4921615;29;20079;-91
2023/06/16 11:07:58;;;;;;;3.33;1.60;;;24.50;86.20;;;;;;4922025;29;20046;-91
2023/06/16 11:10:24;;;;;;;4.38;1.45;;;24.50;84.70;;;;;;4919818;29;20458;-90
2023/06/16 11:12:50;;;;;;;4.78;1.40;;;24.50;85.90;;;;;;4920893;29;20052;-91
2023/06/16 11:15:18;;;;;;;2.97;1.40;;;24.60;85.70;;;;;;4920927;29;20121;-91
2023/06/16 11:17:47;;;;;;;3.88;1.38;;;24.80;85.40;;;;;;4920399;29;20078;-90
2023/06/16 11:20:13;;;;;;;3.53;1.42;;;24.80;83.30;;;;;;4920437;29;20101;-91
2023/06/16 11:22:39;;;;;;;6.28;1.42;;;24.80;81.60;;;;;;4920920;29;20051;-91
2023/06/16 11:25:08;;;;;;;4.38;1.60;;;24.80;81.40;;;;;;4918831;29;20047;-92
2023/06/16 11:27:34;;;;;;;3.47;1.50;;;24.90;80.70;;;;;;4922526;29;20043;-95
2023/06/16 11:30:05;;;;;;;6.40;1.40;;;25.00;79.40;;;;;;4921371;29;20122;-91
2023/06/16 11:32:34;;;;;;;4.88;1.58;;;25.00;77.10;;;;;;4921155;29;20039;-93
2023/06/16 11:35:01;;;;;;;5.25;1.70;;;25.00;75.90;;;;;;4920633;29;20050;-92
2023/06/16 11:37:47;;;;;;;2.38;1.20;;;25.00;75.50;;;;;;4920384;29;20518;-91
2023/06/16 11:40:17;;;;;;;5.18;1.50;;;25.10;76.30;;;;;;4920593;29;20055;-91
2023/06/16 11:42:43;;;;;;;4.35;1.40;;;25.10;76.60;;;;;;4920469;29;20472;-90
2023/06/16 11:45:09;;;;;;;2.88;1.50;;;25.20;77.40;;;;;;4920437;29;20050;-89
2023/06/16 11:47:35;;;;;;;4.97;1.30;;;25.30;77.20;;;;;;4916478;29;20051;-89
2023/06/16 11:50:03;;;;;;;3.25;1.63;;;25.40;77.00;;;;;;4911713;29;20690;-89
2023/06/16 11:52:30;;;;;;;6.07;1.60;;;25.40;76.10;;;;;;4919322;29;20352;-89
2023/06/16 11:54:57;;;;;;;4.60;1.48;;;25.50;76.30;;;;;;4920046;29;20055;-89
2023/06/16 11:57:23;;;;;;;3.60;1.30;;;25.50;73.60;;;;;;4915506;29;20494;-90
2023/06/16 11:59:49;;;;;;;5.32;1.40;;;25.30;72.20;;;;;;4901512;29;20415;-89
2023/06/16 12:02:15;;;;;;;4.88;1.60;;;25.30;72.90;;;;;;4918849;29;20476;-89
2023/06/16 12:04:41;;;;;;;9.25;1.48;;;25.20;73.30;;;;;;4919229;29;20043;-90
2023/06/16 12:07:07;;;;;;;4.55;1.60;;;25.20;72.80;;;;;;4919491;29;20131;-89
2023/06/16 12:09:37;;;;;;;7.78;1.38;;;25.30;71.90;;;;;;4918953;29;20104;-90
2023/06/16 12:12:04;;;;;;;4.43;1.60;;;25.20;67.50;;;;;;4920143;29;20074;-88
2023/06/16 12:14:35;;;;;;;6.97;1.80;;;25.10;69.00;;;;;;4934824;29;20091;-92
2023/06/16 12:17:01;;;;;;;2.22;1.25;;;25.00;69.20;;;;;;4920579;29;20043;-91
2023/06/16 12:19:30;;;;;;;4.20;1.70;;;24.90;70.20;;;;;;4907065;29;20118;-91
2023/06/16 12:22:00;;;;;;;5.15;1.45;;;25.00;70.00;;;;;;4920291;29;20043;-90
2023/06/16 12:24:27;;;;;;;4.55;1.35;;;25.10;69.30;;;;;;4918769;29;20555;-90
2023/06/16 12:26:53;;;;;;;4.60;1.50;;;25.20;68.60;;;;;;4919421;29;20070;-89
2023/06/16 12:29:22;;;;;;;4.28;1.50;;;25.20;69.10;;;;;;4919391;29;20082;-92
2023/06/16 12:31:57;;;;;;;3.03;1.40;;;25.30;68.90;;;;;;4920214;29;20501;-94
2023/06/16 12:34:30;;;;;;;8.05;1.55;;;25.30;69.00;;;;;;4916486;29;20107;-94
2023/06/16 12:37:03;;;;;;;6.88;1.60;;;25.20;69.00;;;;;;4918523;29;20395;-93
2023/06/16 12:39:33;;;;;;;5.95;1.58;;;25.10;70.10;;;;;;4917558;29;20506;-95
2023/06/16 12:42:03;;;;;;;5.80;1.30;;;25.20;70.60;;;;;;4914210;29;20198;-94
2023/06/16 12:44:45;;;;;;;7.13;1.63;;;25.10;70.50;;;;;;4917024;29;20032;-95
2023/06/16 12:47:12;;;;;;;;;;;24.90;71.20;;;;;;4916838;29;20051;-95
2023/06/16 12:49:38;;;;;;;11.43;2.20;;;24.80;72.10;;;;;;4917770;29;19968;-93
2023/06/16 12:52:05;;;;;;;4.22;1.55;;;24.70;72.70;;;;;;4919968;29;20078;-93
2023/06/16 12:54:31;;;;;;;7.78;1.70;;;24.70;72.80;;;;;;4917996;29;20105;-94
2023/06/16 12:56:57;;;;;;;3.15;1.30;;;24.70;73.70;;;;;;4917268;29;20323;-94